createdAt,value
2018-11-25T00:00:33.402Z,96606.00
2018-11-25T00:03:02.894Z,96601.00
2018-11-25T00:05:32.750Z,96606.00
2018-11-25T00:08:02.221Z,96607.00
2018-11-25T00:10:34.519Z,96607.00
2018-11-25T00:13:03.953Z,96605.00
2018-11-25T00:15:33.278Z,96597.00
2018-11-25T00:18:03.427Z,96587.00
2018-11-25T00:20:32.782Z,96592.00
2018-11-25T00:23:02.151Z,96591.00
2018-11-25T00:25:31.503Z,96590.00
2018-11-25T00:28:00.834Z,96589.00
2018-11-25T00:30:30.454Z,96583.00
2018-11-25T00:33:00.190Z,96579.00
2018-11-25T00:35:29.555Z,96578.00
2018-11-25T00:37:58.878Z,96570.00
2018-11-25T00:40:28.333Z,96572.00
2018-11-25T00:42:57.701Z,96568.00
2018-11-25T00:45:27.742Z,96566.00
2018-11-25T00:47:57.205Z,96566.00
2018-11-25T00:50:26.674Z,96571.00
2018-11-25T00:52:56.017Z,96568.00
2018-11-25T00:55:25.376Z,96572.00
2018-11-25T00:57:54.735Z,96559.00
2018-11-25T01:00:24.059Z,96561.00
2018-11-25T01:02:53.501Z,96565.00
2018-11-25T01:05:22.834Z,96574.00
2018-11-25T01:07:52.206Z,96573.00
2018-11-25T01:10:22.535Z,96577.00
2018-11-25T01:12:56.954Z,96575.00
2018-11-25T01:15:26.343Z,96577.00
2018-11-25T01:17:55.661Z,96579.00
2018-11-25T01:20:32.247Z,96576.00
2018-11-25T01:23:01.585Z,96585.00
2018-11-25T01:25:33.314Z,96584.00
2018-11-25T01:28:03.439Z,96580.00
2018-11-25T01:30:33.984Z,96574.00
2018-11-25T01:33:04.845Z,96573.00
2018-11-25T01:35:34.706Z,96576.00
2018-11-25T01:38:04.149Z,96572.00
2018-11-25T01:40:33.538Z,96569.00
2018-11-25T01:43:03.467Z,96569.00
2018-11-25T01:45:32.806Z,96572.00
2018-11-25T01:48:02.114Z,96567.00
2018-11-25T01:50:31.480Z,96565.00
2018-11-25T01:53:05.694Z,96559.00
2018-11-25T01:55:35.101Z,96555.00
2018-11-25T01:58:04.782Z,96556.00
2018-11-25T02:00:34.345Z,96555.00
2018-11-25T02:03:04.346Z,96550.00
2018-11-25T02:05:33.750Z,96547.00
2018-11-25T02:08:03.666Z,96549.00
2018-11-25T02:10:33.310Z,96546.00
2018-11-25T02:13:02.696Z,96545.00
2018-11-25T02:15:32.026Z,96540.00
2018-11-25T02:18:01.379Z,96539.00
2018-11-25T02:20:30.738Z,96538.00
2018-11-25T02:23:00.086Z,96533.00
2018-11-25T02:25:29.898Z,96532.00
2018-11-25T02:27:59.214Z,96533.00
2018-11-25T02:30:29.298Z,96532.00
2018-11-25T02:32:58.802Z,96525.00
2018-11-25T02:35:28.116Z,96522.00
2018-11-25T02:37:57.439Z,96516.00
2018-11-25T02:40:30.838Z,96508.00
2018-11-25T02:43:00.195Z,96497.00
2018-11-25T02:45:29.511Z,96499.00
2018-11-25T02:47:58.811Z,96502.00
2018-11-25T02:50:29.290Z,96490.00
2018-11-25T02:53:00.541Z,96488.00
2018-11-25T02:55:29.925Z,96488.00
2018-11-25T02:57:59.260Z,96485.00
2018-11-25T03:00:28.639Z,96489.00
2018-11-25T03:02:58.738Z,96488.00
2018-11-25T03:08:46.411Z,96483.00
2018-11-25T03:11:15.749Z,96472.00
2018-11-25T03:13:45.062Z,96470.00
2018-11-25T03:16:14.418Z,96468.00
2018-11-25T03:18:43.753Z,96470.00
2018-11-25T03:21:27.597Z,96459.00
2018-11-25T03:23:56.925Z,96457.00
2018-11-25T03:26:26.241Z,96458.00
2018-11-25T03:28:55.596Z,96452.00
2018-11-25T03:31:24.917Z,96446.00
2018-11-25T03:33:54.269Z,96443.00
2018-11-25T03:36:23.623Z,96438.00
2018-11-25T03:38:52.962Z,96431.00
2018-11-25T03:41:22.335Z,96420.00
2018-11-25T03:43:51.690Z,96419.00
2018-11-25T03:46:21.009Z,96424.00
2018-11-25T03:48:50.335Z,96421.00
2018-11-25T03:51:19.959Z,96417.00
2018-11-25T03:53:49.286Z,96422.00
2018-11-25T03:56:18.634Z,96424.00
2018-11-25T03:58:47.990Z,96419.00
2018-11-25T04:01:17.308Z,96424.00
2018-11-25T04:03:46.855Z,96425.00
2018-11-25T04:06:16.233Z,96420.00
2018-11-25T04:08:50.453Z,96412.00
2018-11-25T04:11:19.807Z,96408.00
2018-11-25T04:13:49.194Z,96410.00
2018-11-25T04:16:19.155Z,96404.00
2018-11-25T04:18:48.577Z,96402.00
2018-11-25T04:21:17.886Z,96397.00
2018-11-25T04:23:47.234Z,96396.00
2018-11-25T04:26:16.598Z,96401.00
2018-11-25T04:28:45.926Z,96398.00
2018-11-25T04:31:17.374Z,96393.00
2018-11-25T04:33:46.783Z,96390.00
2018-11-25T04:36:16.154Z,96389.00
2018-11-25T04:38:45.477Z,96388.00
2018-11-25T04:41:14.803Z,96390.00
2018-11-25T04:43:44.129Z,96389.00
2018-11-25T04:46:13.548Z,96384.00
2018-11-25T04:48:42.866Z,96387.00
2018-11-25T04:51:12.207Z,96386.00
2018-11-25T04:53:41.866Z,96384.00
2018-11-25T04:56:11.194Z,96378.00
2018-11-25T04:58:40.520Z,96379.00
2018-11-25T05:01:09.897Z,96376.00
2018-11-25T05:03:39.347Z,96368.00
2018-11-25T05:06:08.714Z,96362.00
2018-11-25T05:08:38.060Z,96359.00
2018-11-25T05:11:07.444Z,96358.00
2018-11-25T05:13:36.779Z,96355.00
2018-11-25T05:16:06.299Z,96358.00
2018-11-25T05:18:35.694Z,96350.00
2018-11-25T05:21:05.042Z,96352.00
2018-11-25T05:23:34.904Z,96347.00
2018-11-25T05:26:04.366Z,96348.00
2018-11-25T05:28:33.678Z,96342.00
2018-11-25T05:31:03.086Z,96339.00
2018-11-25T05:33:32.543Z,96335.00
2018-11-25T05:36:02.322Z,96337.00
2018-11-25T05:38:31.676Z,96330.00
2018-11-25T05:41:00.986Z,96341.00
2018-11-25T05:43:30.400Z,96337.00
2018-11-25T05:45:59.687Z,96335.00
2018-11-25T05:48:29.019Z,96336.00
2018-11-25T05:50:58.349Z,96340.00
2018-11-25T05:53:27.678Z,96334.00
2018-11-25T05:55:56.994Z,96336.00
2018-11-25T05:58:26.377Z,96336.00
2018-11-25T06:00:55.707Z,96336.00
2018-11-25T06:03:25.042Z,96332.00
2018-11-25T06:05:54.378Z,96332.00
2018-11-25T06:08:23.691Z,96332.00
2018-11-25T06:10:53.010Z,96335.00
2018-11-25T06:13:22.342Z,96333.00
2018-11-25T06:15:51.684Z,96324.00
2018-11-25T06:18:21.002Z,96324.00
2018-11-25T06:20:50.359Z,96323.00
2018-11-25T06:23:19.731Z,96326.00
2018-11-25T06:25:49.783Z,96327.00
2018-11-25T06:28:19.164Z,96332.00
2018-11-25T06:30:48.500Z,96332.00
2018-11-25T06:33:17.870Z,96323.00
2018-11-25T06:35:47.207Z,96325.00
2018-11-25T06:38:16.549Z,96319.00
2018-11-25T06:40:45.874Z,96319.00
2018-11-25T06:43:15.222Z,96323.00
2018-11-25T06:45:44.573Z,96316.00
2018-11-25T06:48:13.891Z,96318.00
2018-11-25T06:50:43.195Z,96312.00
2018-11-25T06:53:12.546Z,96305.00
2018-11-25T06:55:41.868Z,96304.00
2018-11-25T06:58:11.170Z,96308.00
2018-11-25T07:00:40.558Z,96302.00
2018-11-25T07:03:10.003Z,96297.00
2018-11-25T07:05:39.327Z,96292.00
2018-11-25T07:08:08.671Z,96292.00
2018-11-25T07:10:37.976Z,96289.00
2018-11-25T07:13:07.364Z,96286.00
2018-11-25T07:15:36.712Z,96280.00
2018-11-25T07:18:06.133Z,96281.00
2018-11-25T07:20:35.463Z,96279.00
2018-11-25T07:23:05.098Z,96274.00
2018-11-25T07:25:34.442Z,96274.00
2018-11-25T07:28:17.915Z,96279.00
2018-11-25T07:30:33.211Z,96287.00
2018-11-25T07:33:02.599Z,96285.00
2018-11-25T07:35:32.295Z,96287.00
2018-11-25T07:38:01.660Z,96283.00
2018-11-25T07:40:30.993Z,96283.00
2018-11-25T07:43:00.353Z,96277.00
2018-11-25T07:45:30.803Z,96272.00
2018-11-25T07:47:59.063Z,96270.00
2018-11-25T07:50:28.406Z,96264.00
2018-11-25T07:52:57.722Z,96261.00
2018-11-25T07:55:27.335Z,96262.00
2018-11-25T07:57:58.124Z,96262.00
2018-11-25T08:00:27.932Z,96261.00
2018-11-25T08:02:57.288Z,96260.00
2018-11-25T08:05:34.023Z,96256.00
2018-11-25T08:08:03.355Z,96251.00
2018-11-25T08:10:32.652Z,96247.00
2018-11-25T08:13:01.955Z,96237.00
2018-11-25T08:15:39.687Z,96236.00
2018-11-25T08:18:09.427Z,96233.00
2018-11-25T08:20:38.777Z,96232.00
2018-11-25T08:23:08.146Z,96226.00
2018-11-25T08:25:37.475Z,96227.00
2018-11-25T08:28:06.932Z,96220.00
2018-11-25T08:30:36.250Z,96218.00
2018-11-25T08:33:05.944Z,96214.00
2018-11-25T08:35:41.938Z,96200.00
2018-11-25T08:41:00.099Z,96199.00
2018-11-25T08:43:29.482Z,96197.00
2018-11-25T08:45:58.811Z,96186.00
2018-11-25T08:48:28.157Z,96184.00
2018-11-25T08:50:57.474Z,96176.00
2018-11-25T08:53:26.790Z,96186.00
2018-11-25T08:55:56.139Z,96185.00
2018-11-25T08:58:40.498Z,96186.00
2018-11-25T09:01:22.295Z,96191.00
2018-11-25T09:03:56.077Z,96184.00
2018-11-25T09:06:31.016Z,96180.00
2018-11-25T09:09:08.717Z,96172.00
2018-11-25T09:11:43.754Z,96160.00
2018-11-25T09:14:13.070Z,96149.00
2018-11-25T09:16:48.400Z,96146.00
2018-11-25T09:19:17.724Z,96143.00
2018-11-25T09:21:48.147Z,96143.00
2018-11-25T09:24:17.474Z,96138.00
2018-11-25T09:26:46.834Z,96128.00
2018-11-25T09:29:17.445Z,96128.00
2018-11-25T09:31:47.659Z,96125.00
2018-11-25T09:34:17.038Z,96128.00
2018-11-25T09:36:47.045Z,96130.00
2018-11-25T09:39:18.434Z,96136.00
2018-11-25T09:41:47.822Z,96131.00
2018-11-25T09:44:17.183Z,96131.00
2018-11-25T09:46:46.536Z,96126.00
2018-11-25T09:49:15.843Z,96126.00
2018-11-25T09:51:47.283Z,96121.00
2018-11-25T09:54:29.527Z,96117.00
2018-11-25T09:56:58.866Z,96115.00
2018-11-25T09:59:28.495Z,96106.00
2018-11-25T10:01:57.839Z,96100.00
2018-11-25T10:04:32.028Z,96096.00
2018-11-25T10:07:01.928Z,96095.00
2018-11-25T10:09:31.295Z,96092.00
2018-11-25T10:12:01.506Z,96088.00
2018-11-25T10:14:30.882Z,96087.00
2018-11-25T10:17:01.286Z,96077.00
2018-11-25T10:19:30.755Z,96072.00
2018-11-25T10:22:06.626Z,96062.00
2018-11-25T10:24:35.970Z,96055.00
2018-11-25T10:27:18.559Z,96043.00
2018-11-25T10:29:49.096Z,96046.00
2018-11-25T10:32:18.591Z,96045.00
2018-11-25T10:34:47.949Z,96038.00
2018-11-25T10:37:20.647Z,96041.00
2018-11-25T10:39:50.207Z,96036.00
2018-11-25T10:42:19.754Z,96029.00
2018-11-25T10:44:49.077Z,96026.00
2018-11-25T10:47:19.562Z,96026.00
2018-11-25T10:49:48.871Z,96026.00
2018-11-25T10:52:18.233Z,96019.00
2018-11-25T10:54:52.726Z,96015.00
2018-11-25T10:57:22.187Z,96000.00
2018-11-25T10:59:54.820Z,95999.00
2018-11-25T11:02:29.311Z,95992.00
2018-11-25T11:05:03.899Z,95988.00
2018-11-25T11:07:41.812Z,95981.00
2018-11-25T11:10:11.434Z,95982.00
2018-11-25T11:12:51.162Z,95984.00
2018-11-25T11:15:20.594Z,95977.00
2018-11-25T11:17:59.796Z,95969.00
2018-11-25T11:20:30.111Z,95957.00
2018-11-25T11:22:59.598Z,95961.00
2018-11-25T11:25:29.986Z,95958.00
2018-11-25T11:28:08.852Z,95959.00
2018-11-25T11:30:38.599Z,95958.00
2018-11-25T11:33:08.822Z,95954.00
2018-11-25T11:35:38.232Z,95948.00
2018-11-25T11:38:07.573Z,95942.00
2018-11-25T11:40:38.701Z,95950.00
2018-11-25T11:43:09.036Z,95941.00
2018-11-25T11:45:58.336Z,95954.00
2018-11-25T11:48:30.529Z,95952.00
2018-11-25T11:51:25.586Z,95950.00
2018-11-25T11:53:52.031Z,95944.00
2018-11-25T11:56:21.446Z,95940.00
2018-11-25T11:58:50.751Z,95944.00
2018-11-25T12:01:20.242Z,95943.00
2018-11-25T12:03:56.898Z,95941.00
2018-11-25T12:06:26.215Z,95941.00
2018-11-25T12:08:55.569Z,95939.00
2018-11-25T12:11:24.918Z,95935.00
2018-11-25T12:13:54.255Z,95932.00
2018-11-25T12:16:24.693Z,95932.00
2018-11-25T12:18:54.039Z,95933.00
2018-11-25T12:21:24.389Z,95935.00
2018-11-25T12:23:53.941Z,95934.00
2018-11-25T12:26:23.280Z,95937.00
2018-11-25T12:29:13.111Z,95937.00
2018-11-25T12:31:42.462Z,95938.00
2018-11-25T12:34:11.778Z,95940.00
2018-11-25T12:36:41.141Z,95940.00
2018-11-25T12:39:10.650Z,95939.00
2018-11-25T12:41:39.962Z,95935.00
2018-11-25T12:44:09.627Z,95933.00
2018-11-25T12:46:39.247Z,95928.00
2018-11-25T12:49:08.583Z,95924.00
2018-11-25T12:51:37.913Z,95920.00
2018-11-25T12:54:07.503Z,95922.00
2018-11-25T12:56:36.836Z,95916.00
2018-11-25T12:59:06.487Z,95913.00
2018-11-25T13:01:35.859Z,95907.00
2018-11-25T13:04:05.399Z,95912.00
2018-11-25T13:06:34.845Z,95911.00
2018-11-25T13:09:06.212Z,95907.00
2018-11-25T13:11:35.555Z,95913.00
2018-11-25T13:14:04.983Z,95906.00
2018-11-25T13:16:34.320Z,95908.00
2018-11-25T13:19:03.666Z,95909.00
2018-11-25T13:21:32.967Z,95913.00
2018-11-25T13:24:08.249Z,95910.00
2018-11-25T13:26:37.564Z,95909.00
2018-11-25T13:29:07.593Z,95906.00
2018-11-25T13:31:36.997Z,95905.00
2018-11-25T13:34:06.549Z,95908.00
2018-11-25T13:36:35.874Z,95908.00
2018-11-25T13:39:08.694Z,95904.00
2018-11-25T13:41:39.061Z,95903.00
2018-11-25T13:44:08.403Z,95901.00
2018-11-25T13:46:37.794Z,95897.00
2018-11-25T13:49:07.142Z,95899.00
2018-11-25T13:51:36.452Z,95903.00
2018-11-25T13:54:05.794Z,95904.00
2018-11-25T13:56:35.123Z,95905.00
2018-11-25T13:59:04.479Z,95904.00
2018-11-25T14:01:34.375Z,95903.00
2018-11-25T14:04:03.859Z,95904.00
2018-11-25T14:06:33.225Z,95903.00
2018-11-25T14:09:03.064Z,95899.00
2018-11-25T14:11:32.967Z,95897.00
2018-11-25T14:14:01.731Z,95895.00
2018-11-25T14:16:31.295Z,95894.00
2018-11-25T14:19:00.608Z,95896.00
2018-11-25T14:21:29.922Z,95902.00
2018-11-25T14:23:59.238Z,95908.00
2018-11-25T14:26:36.456Z,95904.00
2018-11-25T14:29:06.144Z,95904.00
2018-11-25T14:31:36.005Z,95906.00
2018-11-25T14:34:05.805Z,95908.00
2018-11-25T14:36:35.130Z,95904.00
2018-11-25T14:39:08.198Z,95901.00
2018-11-25T14:41:37.533Z,95901.00
2018-11-25T14:44:09.271Z,95895.00
2018-11-25T14:46:37.907Z,95895.00
2018-11-25T14:49:08.320Z,95894.00
2018-11-25T14:51:37.706Z,95895.00
2018-11-25T14:54:07.423Z,95902.00
2018-11-25T14:56:36.736Z,95911.00
2018-11-25T14:59:06.066Z,95911.00
2018-11-25T15:01:35.418Z,95917.00
2018-11-25T15:04:05.398Z,95921.00
2018-11-25T15:06:34.801Z,95928.00
2018-11-25T15:09:05.488Z,95927.00
2018-11-25T15:11:34.888Z,95923.00
2018-11-25T15:14:04.230Z,95921.00
2018-11-25T15:16:33.550Z,95921.00
2018-11-25T15:19:03.895Z,95920.00
2018-11-25T15:21:33.253Z,95923.00
2018-11-25T15:24:02.546Z,95918.00
2018-11-25T15:26:32.238Z,95918.00
2018-11-25T15:29:01.618Z,95915.00
2018-11-25T15:31:31.075Z,95918.00
2018-11-25T15:34:00.411Z,95918.00
2018-11-25T15:36:29.726Z,95915.00
2018-11-25T15:39:01.281Z,95921.00
2018-11-25T15:41:30.591Z,95918.00
2018-11-25T15:44:00.088Z,95912.00
2018-11-25T15:46:31.070Z,95914.00
2018-11-25T15:49:00.403Z,95911.00
2018-11-25T15:51:30.857Z,95918.00
2018-11-25T15:54:00.839Z,95919.00
2018-11-25T15:56:30.190Z,95925.00
2018-11-25T15:58:59.589Z,95918.00
2018-11-25T16:01:31.193Z,95922.00
2018-11-25T16:04:00.533Z,95925.00
2018-11-25T16:06:33.564Z,95932.00
2018-11-25T16:09:03.161Z,95932.00
2018-11-25T16:11:32.524Z,95937.00
2018-11-25T16:14:01.879Z,95934.00
2018-11-25T16:16:31.278Z,95941.00
2018-11-25T16:19:00.680Z,95940.00
2018-11-25T16:21:30.034Z,95940.00
2018-11-25T16:24:07.915Z,95940.00
2018-11-25T16:26:38.608Z,95940.00
2018-11-25T16:29:17.835Z,95947.00
2018-11-25T16:31:47.175Z,95952.00
2018-11-25T16:34:16.737Z,95953.00
2018-11-25T16:36:46.075Z,95955.00
2018-11-25T16:39:15.444Z,95957.00
2018-11-25T16:41:44.784Z,95957.00
2018-11-25T16:44:14.135Z,95960.00
2018-11-25T16:46:43.455Z,95967.00
2018-11-25T16:49:13.671Z,95969.00
2018-11-25T16:51:44.076Z,95965.00
2018-11-25T16:54:13.377Z,95967.00
2018-11-25T16:56:42.735Z,95969.00
2018-11-25T16:59:12.091Z,95972.00
2018-11-25T17:01:41.411Z,95975.00
2018-11-25T17:04:10.748Z,95974.00
2018-11-25T17:06:42.144Z,95984.00
2018-11-25T17:09:13.157Z,95986.00
2018-11-25T17:11:42.530Z,95986.00
2018-11-25T17:14:11.834Z,95988.00
2018-11-25T17:16:41.211Z,95986.00
2018-11-25T17:19:10.569Z,95985.00
2018-11-25T17:21:39.923Z,95979.00
2018-11-25T17:24:09.255Z,95985.00
2018-11-25T17:26:38.799Z,95987.00
2018-11-25T17:29:08.183Z,95989.00
2018-11-25T17:31:37.503Z,95986.00
2018-11-25T17:34:07.194Z,95982.00
2018-11-25T17:36:38.620Z,95978.00
2018-11-25T17:39:09.578Z,95981.00
2018-11-25T17:41:38.906Z,95984.00
2018-11-25T17:44:08.239Z,95979.00
2018-11-25T17:46:37.702Z,95984.00
2018-11-25T17:49:07.879Z,95978.00
2018-11-25T17:51:37.237Z,95972.00
2018-11-25T17:54:07.021Z,95974.00
2018-11-25T17:56:37.193Z,95972.00
2018-11-25T17:59:06.847Z,95967.00
2018-11-25T18:01:36.190Z,95959.00
2018-11-25T18:04:06.206Z,95963.00
2018-11-25T18:06:35.578Z,95961.00
2018-11-25T18:09:12.518Z,95960.00
2018-11-25T18:11:41.862Z,95962.00
2018-11-25T18:14:11.634Z,95967.00
2018-11-25T18:16:41.077Z,95960.00
2018-11-25T18:22:16.876Z,95956.00
2018-11-25T18:25:06.278Z,95952.00
2018-11-25T18:27:36.082Z,95951.00
2018-11-25T18:30:15.057Z,95953.00
2018-11-25T18:32:45.612Z,95945.00
2018-11-25T18:35:30.153Z,95952.00
2018-11-25T18:37:59.713Z,95943.00
2018-11-25T18:40:31.292Z,95930.00
2018-11-25T18:43:00.979Z,95936.00
2018-11-25T18:45:30.535Z,95940.00
2018-11-25T18:48:00.215Z,95942.00
2018-11-25T18:50:30.914Z,95937.00
2018-11-25T18:53:00.330Z,95941.00
2018-11-25T18:55:29.927Z,95942.00
2018-11-25T18:57:59.252Z,95943.00
2018-11-25T19:00:47.483Z,95938.00
2018-11-25T19:03:16.816Z,95935.00
2018-11-25T19:05:46.190Z,95936.00
2018-11-25T19:08:15.556Z,95931.00
2018-11-25T19:10:45.015Z,95926.00
2018-11-25T19:13:16.017Z,95920.00
2018-11-25T19:15:45.434Z,95921.00
2018-11-25T19:18:14.791Z,95914.00
2018-11-25T19:20:44.274Z,95911.00
2018-11-25T19:23:13.679Z,95911.00
2018-11-25T19:25:44.092Z,95909.00
2018-11-25T19:28:14.547Z,95909.00
2018-11-25T19:30:44.867Z,95900.00
2018-11-25T19:33:14.466Z,95901.00
2018-11-25T19:35:44.788Z,95906.00
2018-11-25T19:38:14.238Z,95907.00
2018-11-25T19:40:43.606Z,95900.00
2018-11-25T19:43:13.267Z,95904.00
2018-11-25T19:45:43.021Z,95905.00
2018-11-25T19:48:16.754Z,95895.00
2018-11-25T19:50:46.708Z,95900.00
2018-11-25T19:53:16.296Z,95896.00
2018-11-25T19:55:45.740Z,95897.00
2018-11-25T19:58:26.155Z,95898.00
2018-11-25T20:00:59.134Z,95905.00
2018-11-25T20:03:30.834Z,95905.00
2018-11-25T20:06:02.844Z,95907.00
2018-11-25T20:08:50.298Z,95899.00
2018-11-25T20:11:20.334Z,95904.00
2018-11-25T20:13:53.525Z,95903.00
2018-11-25T20:16:33.402Z,95907.00
2018-11-25T20:19:14.968Z,95910.00
2018-11-25T20:21:49.848Z,95901.00
2018-11-25T20:24:19.835Z,95903.00
2018-11-25T20:26:56.325Z,95900.00
2018-11-25T20:29:26.613Z,95900.00
2018-11-25T20:32:01.688Z,95899.00
2018-11-25T20:34:31.734Z,95904.00
2018-11-25T20:37:04.290Z,95904.00
2018-11-25T20:39:37.384Z,95900.00
2018-11-25T20:42:08.366Z,95900.00
2018-11-25T20:44:37.747Z,95892.00
2018-11-25T20:47:07.953Z,95894.00
2018-11-25T20:49:37.605Z,95895.00
2018-11-25T20:52:12.397Z,95893.00
2018-11-25T20:54:45.160Z,95892.00
2018-11-25T20:57:19.585Z,95893.00
2018-11-25T20:59:49.354Z,95889.00
2018-11-25T21:02:20.454Z,95888.00
2018-11-25T21:04:48.550Z,95888.00
2018-11-25T21:07:18.219Z,95882.00
2018-11-25T21:09:47.976Z,95885.00
2018-11-25T21:12:17.322Z,95889.00
2018-11-25T21:14:46.758Z,95888.00
2018-11-25T21:17:16.661Z,95888.00
2018-11-25T21:19:46.574Z,95891.00
2018-11-25T21:22:44.874Z,95886.00
2018-11-25T21:25:16.920Z,95884.00
2018-11-25T21:27:46.580Z,95873.00
2018-11-25T21:30:18.508Z,95867.00
2018-11-25T21:32:49.810Z,95872.00
2018-11-25T21:35:19.207Z,95877.00
2018-11-25T21:37:48.650Z,95873.00
2018-11-25T21:40:23.858Z,95875.00
2018-11-25T21:43:00.734Z,95873.00
2018-11-25T21:45:35.026Z,95875.00
2018-11-25T21:48:04.470Z,95872.00
2018-11-25T21:50:33.841Z,95867.00
2018-11-25T21:53:03.223Z,95870.00
2018-11-25T21:55:35.727Z,95866.00
2018-11-25T21:58:06.206Z,95870.00
2018-11-25T22:00:35.772Z,95868.00
2018-11-25T22:03:05.190Z,95863.00
2018-11-25T22:05:37.694Z,95865.00
2018-11-25T22:08:07.566Z,95868.00
2018-11-25T22:10:39.030Z,95866.00
2018-11-25T22:13:08.511Z,95869.00
2018-11-25T22:15:37.971Z,95872.00
2018-11-25T22:18:07.399Z,95866.00
2018-11-25T22:20:37.129Z,95866.00
2018-11-25T22:23:07.788Z,95870.00
2018-11-25T22:25:37.278Z,95873.00
2018-11-25T22:28:07.042Z,95871.00
2018-11-25T22:30:36.479Z,95867.00
2018-11-25T22:33:06.866Z,95861.00
2018-11-25T22:35:36.762Z,95863.00
2018-11-25T22:38:06.930Z,95865.00
2018-11-25T22:40:36.294Z,95859.00
2018-11-25T22:43:09.113Z,95865.00
2018-11-25T22:45:38.594Z,95862.00
2018-11-25T22:48:07.984Z,95862.00
2018-11-25T22:50:37.485Z,95865.00
2018-11-25T22:53:07.843Z,95858.00
2018-11-25T22:55:37.271Z,95861.00
2018-11-25T22:58:07.250Z,95867.00
2018-11-25T23:00:37.612Z,95866.00
2018-11-25T23:03:08.114Z,95867.00
2018-11-25T23:06:58.082Z,95872.00
2018-11-25T23:09:35.818Z,95872.00
2018-11-25T23:12:09.082Z,95867.00
2018-11-25T23:14:38.812Z,95868.00
2018-11-25T23:17:15.905Z,95870.00
2018-11-25T23:19:45.339Z,95865.00
2018-11-25T23:22:15.244Z,95867.00
2018-11-25T23:24:44.576Z,95868.00
2018-11-25T23:27:25.042Z,95865.00
2018-11-25T23:30:05.832Z,95869.00
2018-11-25T23:32:35.491Z,95869.00
2018-11-25T23:35:06.583Z,95869.00
2018-11-25T23:37:36.261Z,95864.00
2018-11-25T23:40:06.915Z,95858.00
2018-11-25T23:42:36.588Z,95860.00
2018-11-25T23:45:11.745Z,95857.00
2018-11-25T23:47:43.433Z,95862.00
2018-11-25T23:50:15.558Z,95862.00
2018-11-25T23:52:51.860Z,95860.00
2018-11-25T23:55:22.206Z,95862.00
2018-11-25T23:57:52.905Z,95857.00
